createdAt,value
2023-11-30T00:01:35.054Z,-4.85
2023-11-30T00:04:01.808Z,-4.83
2023-11-30T00:06:34.310Z,-4.89
2023-11-30T00:09:01.182Z,-4.93
2023-11-30T00:11:28.246Z,-4.93
2023-11-30T00:13:58.935Z,-4.95
2023-11-30T00:16:27.628Z,-5.01
2023-11-30T00:18:54.257Z,-4.99
2023-11-30T00:21:20.930Z,-5.03
2023-11-30T00:23:49.792Z,-5.11
2023-11-30T00:26:24.066Z,-5.14
2023-11-30T00:29:00.620Z,-5.19
2023-11-30T00:31:29.749Z,-5.18
2023-11-30T00:33:59.223Z,-5.24
2023-11-30T00:36:25.976Z,-5.32
2023-11-30T00:38:55.429Z,-5.27
2023-11-30T00:41:26.450Z,-5.26
2023-11-30T00:43:53.147Z,-5.25
2023-11-30T00:46:21.879Z,-5.25
2023-11-30T00:48:48.964Z,-5.23
2023-11-30T00:51:17.189Z,-5.25
2023-11-30T00:53:44.187Z,-5.28
2023-11-30T00:56:15.041Z,-5.27
2023-11-30T00:58:44.857Z,-5.29
2023-11-30T01:01:11.817Z,-5.29
2023-11-30T01:03:41.307Z,-5.35
2023-11-30T01:06:08.533Z,-5.38
2023-11-30T01:08:35.400Z,-5.36
2023-11-30T01:11:09.823Z,-5.36
2023-11-30T01:13:38.887Z,-5.38
2023-11-30T01:16:08.208Z,-5.39
2023-11-30T01:18:35.018Z,-5.39
2023-11-30T01:21:01.811Z,-5.40
2023-11-30T01:23:28.888Z,-5.39
2023-11-30T01:25:55.592Z,-5.40
2023-11-30T01:28:23.816Z,-5.41
2023-11-30T01:30:50.466Z,-5.43
2023-11-30T01:33:17.171Z,-5.47
2023-11-30T01:35:50.667Z,-5.47
2023-11-30T01:38:17.454Z,-5.42
2023-11-30T01:40:44.207Z,-5.35
2023-11-30T01:43:12.079Z,-5.28
2023-11-30T01:45:39.327Z,-5.18
2023-11-30T01:48:08.941Z,-5.13
2023-11-30T01:50:37.071Z,-5.06
2023-11-30T01:53:03.723Z,-4.99
2023-11-30T01:55:32.406Z,-4.90
2023-11-30T01:58:01.915Z,-4.83
2023-11-30T02:00:30.160Z,-4.73
2023-11-30T02:03:01.133Z,-4.68
2023-11-30T02:05:27.868Z,-4.61
2023-11-30T02:07:55.841Z,-4.54
2023-11-30T02:10:24.057Z,-4.46
2023-11-30T02:12:54.017Z,-4.39
2023-11-30T02:15:24.853Z,-4.31
2023-11-30T02:17:55.587Z,-4.26
2023-11-30T02:20:22.364Z,-4.21
2023-11-30T02:22:49.007Z,-4.17
2023-11-30T02:25:16.959Z,-4.13
2023-11-30T02:27:46.036Z,-4.10
2023-11-30T02:30:13.290Z,-4.05
2023-11-30T02:32:39.994Z,-4.01
2023-11-30T02:35:06.947Z,-3.97
2023-11-30T02:37:33.571Z,-3.92
2023-11-30T02:40:01.132Z,-3.88
2023-11-30T02:42:28.908Z,-3.83
2023-11-30T02:44:55.669Z,-3.80
2023-11-30T02:47:22.351Z,-3.75
2023-11-30T02:49:48.967Z,-3.73
2023-11-30T02:52:15.732Z,-3.70
2023-11-30T02:54:43.025Z,-3.65
2023-11-30T02:57:11.829Z,-3.61
2023-11-30T02:59:42.673Z,-3.62
2023-11-30T03:02:32.740Z,-3.61
2023-11-30T03:04:59.570Z,-3.59
2023-11-30T03:07:26.196Z,-3.59
2023-11-30T03:09:52.812Z,-3.56
2023-11-30T03:12:28.231Z,-3.53
2023-11-30T03:14:55.001Z,-3.51
2023-11-30T03:17:24.713Z,-3.48
2023-11-30T03:19:54.391Z,-3.45
2023-11-30T03:22:21.045Z,-3.43
2023-11-30T03:24:48.387Z,-3.42
2023-11-30T03:27:16.992Z,-3.42
2023-11-30T03:29:43.803Z,-3.38
2023-11-30T03:32:11.213Z,-3.35
2023-11-30T03:34:40.877Z,-3.29
2023-11-30T03:37:07.621Z,-3.30
2023-11-30T03:39:34.375Z,-3.28
2023-11-30T03:42:01.482Z,-3.27
2023-11-30T03:44:29.587Z,-3.28
2023-11-30T03:46:56.247Z,-3.33
2023-11-30T03:49:22.935Z,-3.34
2023-11-30T03:51:50.363Z,-3.31
2023-11-30T03:54:20.855Z,-3.30
2023-11-30T03:56:52.111Z,-3.27
2023-11-30T03:59:19.075Z,-3.25
2023-11-30T04:01:45.770Z,-3.29
2023-11-30T04:04:12.625Z,-3.31
2023-11-30T04:06:39.393Z,-3.37
2023-11-30T04:09:07.873Z,-3.41
2023-11-30T04:11:35.309Z,-3.43
2023-11-30T04:14:08.853Z,-3.43
2023-11-30T04:16:39.761Z,-3.48
2023-11-30T04:19:10.093Z,-3.53
2023-11-30T04:21:39.117Z,-3.52
2023-11-30T04:24:13.278Z,-3.57
2023-11-30T04:26:40.431Z,-3.60
2023-11-30T04:29:07.448Z,-3.66
2023-11-30T04:31:36.539Z,-3.66
2023-11-30T04:34:04.682Z,-3.68
2023-11-30T04:36:31.727Z,-3.65
2023-11-30T04:38:58.683Z,-3.69
2023-11-30T04:41:27.549Z,-3.67
2023-11-30T04:43:54.500Z,-3.70
2023-11-30T04:46:22.979Z,-3.70
2023-11-30T04:48:52.052Z,-3.71
2023-11-30T04:51:18.773Z,-3.70
2023-11-30T04:53:45.381Z,-3.74
2023-11-30T04:56:13.004Z,-3.72
2023-11-30T04:58:41.163Z,-3.75
2023-11-30T05:01:08.510Z,-3.78
2023-11-30T05:03:36.943Z,-3.81
2023-11-30T05:06:06.772Z,-3.84
2023-11-30T05:08:40.204Z,-3.89
2023-11-30T05:11:07.083Z,-3.90
2023-11-30T05:13:33.940Z,-3.90
2023-11-30T05:16:01.125Z,-3.87
2023-11-30T05:18:28.235Z,-3.85
2023-11-30T05:20:54.957Z,-3.85
2023-11-30T05:23:25.761Z,-3.83
2023-11-30T05:26:12.116Z,-3.83
2023-11-30T05:28:41.517Z,-3.81
2023-11-30T05:31:11.823Z,-3.81
2023-11-30T05:33:49.056Z,-3.84
2023-11-30T05:36:15.864Z,-3.84
2023-11-30T05:38:42.479Z,-3.85
2023-11-30T05:41:10.392Z,-3.79
2023-11-30T05:43:38.422Z,-3.71
2023-11-30T05:46:07.451Z,-3.72
2023-11-30T05:48:35.229Z,-3.71
2023-11-30T05:51:02.306Z,-3.67
2023-11-30T05:53:29.349Z,-3.65
2023-11-30T05:55:56.026Z,-3.62
2023-11-30T05:58:25.304Z,-3.60
2023-11-30T06:00:51.956Z,-3.56
2023-11-30T06:03:19.077Z,-3.55
2023-11-30T06:05:45.823Z,-3.52
2023-11-30T06:08:13.102Z,-3.52
2023-11-30T06:10:39.762Z,-3.50
2023-11-30T06:13:08.938Z,-3.50
2023-11-30T06:15:38.756Z,-3.48
2023-11-30T06:18:08.085Z,-3.46
2023-11-30T06:20:34.943Z,-3.43
2023-11-30T06:23:04.304Z,-3.38
2023-11-30T06:25:30.926Z,-3.35
2023-11-30T06:27:57.583Z,-3.35
2023-11-30T06:30:27.042Z,-3.32
2023-11-30T06:32:58.203Z,-3.31
2023-11-30T06:35:25.814Z,-3.25
2023-11-30T06:37:53.538Z,-3.24
2023-11-30T06:40:22.007Z,-3.19
2023-11-30T06:42:49.973Z,-3.17
2023-11-30T06:45:19.295Z,-3.16
2023-11-30T06:47:46.044Z,-3.16
2023-11-30T06:50:23.853Z,-3.12
2023-11-30T06:52:51.606Z,-3.09
2023-11-30T06:55:20.729Z,-3.04
2023-11-30T06:57:49.810Z,-3.04
2023-11-30T07:00:16.811Z,-2.99
2023-11-30T07:02:46.322Z,-2.95
2023-11-30T07:05:13.077Z,-2.92
2023-11-30T07:07:43.079Z,-2.88
2023-11-30T07:10:13.947Z,-2.82
2023-11-30T07:12:44.177Z,-2.80
2023-11-30T07:15:13.908Z,-2.77
2023-11-30T07:17:42.002Z,-2.68
2023-11-30T07:20:17.435Z,-2.66
2023-11-30T07:22:46.982Z,-2.63
2023-11-30T07:25:15.689Z,-2.63
2023-11-30T07:27:42.989Z,-2.57
2023-11-30T07:30:10.962Z,-2.52
2023-11-30T07:32:38.278Z,-2.48
2023-11-30T07:35:07.742Z,-2.45
2023-11-30T07:37:35.606Z,-2.46
2023-11-30T07:40:05.846Z,-2.47
2023-11-30T07:42:37.348Z,-2.40
2023-11-30T07:45:07.445Z,-2.28
2023-11-30T07:47:36.314Z,-2.18
2023-11-30T07:50:03.125Z,-2.09
2023-11-30T07:52:31.249Z,-2.02
2023-11-30T07:54:57.972Z,-1.97
2023-11-30T07:57:25.305Z,-1.92
2023-11-30T07:59:52.066Z,-1.85
2023-11-30T08:02:18.709Z,-1.75
2023-11-30T08:04:46.876Z,-1.71
2023-11-30T08:07:22.043Z,-1.66
2023-11-30T08:09:49.727Z,-1.60
2023-11-30T08:12:19.751Z,-1.49
2023-11-30T08:14:49.415Z,-1.48
2023-11-30T08:17:16.658Z,-1.41
2023-11-30T08:19:43.475Z,-1.59
2023-11-30T08:22:14.679Z,-1.47
2023-11-30T08:24:42.892Z,-1.63
2023-11-30T08:27:09.635Z,-1.63
2023-11-30T08:29:38.238Z,-1.45
2023-11-30T08:32:05.305Z,-1.46
2023-11-30T08:34:35.053Z,-1.27
2023-11-30T08:37:03.510Z,-1.24
2023-11-30T08:39:31.800Z,-0.97
2023-11-30T08:41:59.092Z,-0.87
2023-11-30T08:44:28.273Z,-0.88
2023-11-30T08:46:55.936Z,-0.72
2023-11-30T08:49:23.439Z,-0.59
2023-11-30T08:51:50.163Z,-0.55
2023-11-30T08:54:22.162Z,-0.46
2023-11-30T08:56:49.344Z,-0.42
2023-11-30T08:59:18.344Z,-0.27
2023-11-30T09:01:45.371Z,-0.08
2023-11-30T09:04:15.149Z,0.09
2023-11-30T09:06:42.318Z,0.22
2023-11-30T09:09:09.132Z,0.26
2023-11-30T09:11:37.385Z,0.37
2023-11-30T09:14:04.099Z,0.31
2023-11-30T09:16:33.935Z,0.29
2023-11-30T09:19:00.585Z,0.13
2023-11-30T09:21:32.015Z,0.14
2023-11-30T09:23:59.876Z,0.02
2023-11-30T09:26:26.824Z,0.07
2023-11-30T09:28:53.966Z,0.07
2023-11-30T09:31:24.046Z,-0.21
2023-11-30T09:33:54.957Z,-0.23
2023-11-30T09:36:21.712Z,-0.24
2023-11-30T09:38:48.346Z,-0.28
2023-11-30T09:41:18.138Z,-0.51
2023-11-30T09:43:46.392Z,-0.32
2023-11-30T09:46:16.789Z,-0.11
2023-11-30T09:48:48.318Z,0.02
2023-11-30T09:51:21.402Z,-0.02
2023-11-30T09:53:52.795Z,-0.07
2023-11-30T09:56:22.200Z,-0.33
2023-11-30T09:58:48.961Z,-0.31
2023-11-30T10:01:18.344Z,-0.07
2023-11-30T10:03:45.870Z,-0.30
2023-11-30T10:06:13.836Z,-0.15
2023-11-30T10:08:43.735Z,0.17
2023-11-30T10:11:11.194Z,0.37
2023-11-30T10:13:38.049Z,0.52
2023-11-30T10:16:08.225Z,0.71
2023-11-30T10:18:35.546Z,0.92
2023-11-30T10:21:03.390Z,1.06
2023-11-30T10:23:31.217Z,1.13
2023-11-30T10:25:58.369Z,1.20
2023-11-30T10:28:25.192Z,1.29
2023-11-30T10:31:01.457Z,1.46
2023-11-30T10:33:29.457Z,1.65
2023-11-30T10:36:03.021Z,1.80
2023-11-30T10:38:32.898Z,1.83
2023-11-30T10:41:13.698Z,1.92
2023-11-30T10:43:48.518Z,1.93
2023-11-30T10:46:16.199Z,1.95
2023-11-30T10:48:48.216Z,1.99
2023-11-30T10:51:15.434Z,1.66
2023-11-30T10:54:22.319Z,1.75
2023-11-30T10:56:51.632Z,1.77
2023-11-30T10:59:18.337Z,1.77
2023-11-30T11:01:48.426Z,1.95
2023-11-30T11:04:16.549Z,1.80
2023-11-30T11:06:44.020Z,1.97
2023-11-30T11:09:13.183Z,2.08
2023-11-30T11:11:41.313Z,2.08
2023-11-30T11:14:08.291Z,1.96
2023-11-30T11:16:42.965Z,2.14
2023-11-30T11:19:10.558Z,2.26
2023-11-30T11:21:39.108Z,2.25
2023-11-30T11:24:08.258Z,2.10
2023-11-30T11:26:42.775Z,2.03
2023-11-30T11:29:13.530Z,2.05
2023-11-30T11:31:42.611Z,2.20
2023-11-30T11:34:12.920Z,2.34
2023-11-30T11:36:40.743Z,1.99
2023-11-30T11:39:07.723Z,1.86
2023-11-30T11:41:34.602Z,1.87
2023-11-30T11:44:02.134Z,1.76
2023-11-30T11:46:31.115Z,1.82
2023-11-30T11:48:57.999Z,1.25
2023-11-30T11:51:28.584Z,1.25
2023-11-30T11:53:57.864Z,1.41
2023-11-30T11:56:24.860Z,1.56
2023-11-30T11:58:56.384Z,1.78
2023-11-30T12:01:23.458Z,2.07
2023-11-30T12:03:51.877Z,2.13
2023-11-30T12:06:40.066Z,2.06
2023-11-30T12:09:14.249Z,2.13
2023-11-30T12:11:41.553Z,2.24
2023-11-30T12:14:08.315Z,2.26
2023-11-30T12:16:38.358Z,2.28
2023-11-30T12:19:05.119Z,1.93
2023-11-30T12:21:39.131Z,1.78
2023-11-30T12:24:06.287Z,1.96
2023-11-30T12:26:33.055Z,2.01
2023-11-30T12:28:59.861Z,1.70
2023-11-30T12:31:27.068Z,1.65
2023-11-30T12:33:55.455Z,1.83
2023-11-30T12:36:23.917Z,1.99
2023-11-30T12:38:52.132Z,2.08
2023-11-30T12:41:21.292Z,2.12
2023-11-30T12:43:49.137Z,2.09
2023-11-30T12:46:16.349Z,1.95
2023-11-30T12:48:44.397Z,1.91
2023-11-30T12:51:11.163Z,1.89
2023-11-30T12:53:37.971Z,1.86
2023-11-30T12:56:05.270Z,1.78
2023-11-30T12:58:35.411Z,1.76
2023-11-30T13:01:06.392Z,1.65
2023-11-30T13:03:33.711Z,1.61
2023-11-30T13:06:00.572Z,1.46
2023-11-30T13:08:27.458Z,1.40
2023-11-30T13:10:54.557Z,1.36
2023-11-30T13:13:28.611Z,1.34
2023-11-30T13:16:03.153Z,1.25
2023-11-30T13:18:33.192Z,1.22
2023-11-30T13:21:00.182Z,1.21
2023-11-30T13:23:29.657Z,1.16
2023-11-30T13:25:56.504Z,1.14
2023-11-30T13:28:35.534Z,1.13
2023-11-30T13:31:10.454Z,1.15
2023-11-30T13:33:38.271Z,1.04
2023-11-30T13:36:10.003Z,0.95
2023-11-30T13:38:37.893Z,0.87
2023-11-30T13:41:04.812Z,0.92
2023-11-30T13:43:37.907Z,0.94
2023-11-30T13:46:06.985Z,0.86
2023-11-30T13:48:35.177Z,0.75
2023-11-30T13:51:05.110Z,0.66
2023-11-30T13:53:32.621Z,0.66
2023-11-30T13:55:59.409Z,0.59
2023-11-30T13:58:29.303Z,0.46
2023-11-30T14:00:56.079Z,0.45
2023-11-30T14:03:24.077Z,0.43
2023-11-30T14:08:23.580Z,0.49
2023-11-30T14:10:50.430Z,0.43
2023-11-30T14:13:17.117Z,0.36
2023-11-30T14:15:44.048Z,0.32
2023-11-30T14:18:11.356Z,0.31
2023-11-30T14:20:40.067Z,0.31
2023-11-30T14:23:07.664Z,0.30
2023-11-30T14:25:34.822Z,0.32
2023-11-30T14:28:07.826Z,0.33
2023-11-30T14:30:39.420Z,0.32
2023-11-30T14:33:12.338Z,0.27
2023-11-30T14:35:40.821Z,0.21
2023-11-30T14:38:07.592Z,0.18
2023-11-30T14:40:34.352Z,0.16
2023-11-30T14:43:03.599Z,0.18
2023-11-30T14:45:31.818Z,0.16
2023-11-30T14:47:59.926Z,0.15
2023-11-30T14:50:27.410Z,0.18
2023-11-30T14:52:54.906Z,0.20
2023-11-30T14:55:22.053Z,0.16
2023-11-30T14:57:48.842Z,0.09
2023-11-30T15:00:22.425Z,0.08
2023-11-30T15:02:52.806Z,0.07
2023-11-30T15:05:20.477Z,0.03
2023-11-30T15:07:47.199Z,0.02
2023-11-30T15:10:14.390Z,0.00
2023-11-30T15:12:41.457Z,-0.05
2023-11-30T15:15:14.174Z,-0.14
2023-11-30T15:17:43.992Z,-0.18
2023-11-30T15:20:13.217Z,-0.20
2023-11-30T15:22:41.147Z,-0.25
2023-11-30T15:25:11.170Z,-0.27
2023-11-30T15:27:41.136Z,-0.28
2023-11-30T15:30:11.718Z,-0.33
2023-11-30T15:32:41.256Z,-0.36
2023-11-30T15:35:08.541Z,-0.35
2023-11-30T15:37:36.696Z,-0.35
2023-11-30T15:40:09.739Z,-0.38
2023-11-30T15:42:39.129Z,-0.40
2023-11-30T15:45:10.394Z,-0.38
2023-11-30T15:47:52.033Z,-0.38
2023-11-30T15:50:18.981Z,-0.32
2023-11-30T15:52:45.875Z,-0.31
2023-11-30T15:55:19.790Z,-0.32
2023-11-30T15:57:48.909Z,-0.27
2023-11-30T16:00:16.080Z,-0.27
2023-11-30T16:02:44.670Z,-0.30
2023-11-30T16:05:16.751Z,-0.28
2023-11-30T16:07:46.186Z,-0.28
2023-11-30T16:10:23.337Z,-0.27
2023-11-30T16:12:50.712Z,-0.27
2023-11-30T16:15:17.513Z,-0.28
2023-11-30T16:17:44.438Z,-0.28
2023-11-30T16:20:14.386Z,-0.30
2023-11-30T16:22:41.966Z,-0.36
2023-11-30T16:25:12.025Z,-0.38
2023-11-30T16:27:39.648Z,-0.40
2023-11-30T16:30:08.179Z,-0.35
2023-11-30T16:32:37.911Z,-0.39
2023-11-30T16:35:15.847Z,-0.35
2023-11-30T16:37:49.338Z,-0.38
2023-11-30T16:40:24.283Z,-0.36
2023-11-30T16:42:55.211Z,-0.35
2023-11-30T16:45:25.373Z,-0.38
2023-11-30T16:47:52.914Z,-0.33
2023-11-30T16:50:24.504Z,-0.39
2023-11-30T16:52:51.339Z,-0.36
2023-11-30T16:55:20.349Z,-0.38
2023-11-30T16:57:47.490Z,-0.34
2023-11-30T17:00:15.270Z,-0.38
2023-11-30T17:02:44.848Z,-0.38
2023-11-30T17:05:12.172Z,-0.37
2023-11-30T17:07:39.000Z,-0.42
2023-11-30T17:10:06.134Z,-0.38
2023-11-30T17:12:35.256Z,-0.42
2023-11-30T17:15:02.074Z,-0.43
2023-11-30T17:17:31.510Z,-0.37
2023-11-30T17:19:58.344Z,-0.42
2023-11-30T17:22:25.130Z,-0.42
2023-11-30T17:24:54.762Z,-0.37
2023-11-30T17:27:21.627Z,-0.35
2023-11-30T17:29:49.218Z,-0.39
2023-11-30T17:32:16.179Z,-0.38
2023-11-30T17:34:43.185Z,-0.33
2023-11-30T17:37:12.553Z,-0.31
2023-11-30T17:39:40.832Z,-0.31
2023-11-30T17:42:07.996Z,-0.30
2023-11-30T17:44:35.582Z,-0.30
2023-11-30T17:47:05.010Z,-0.27
2023-11-30T17:49:33.290Z,-0.39
2023-11-30T17:52:04.558Z,-0.42
2023-11-30T17:54:33.868Z,-0.46
2023-11-30T17:57:03.249Z,-0.49
2023-11-30T17:59:33.278Z,-0.50
2023-11-30T18:02:00.271Z,-0.56
2023-11-30T18:04:30.104Z,-0.60
2023-11-30T18:06:58.263Z,-0.61
2023-11-30T18:09:27.762Z,-0.58
2023-11-30T18:11:57.924Z,-0.56
2023-11-30T18:14:32.311Z,-0.55
2023-11-30T18:17:05.793Z,-0.55
2023-11-30T18:19:32.718Z,-0.55
2023-11-30T18:21:59.440Z,-0.54
2023-11-30T18:24:35.400Z,-0.53
2023-11-30T18:27:03.267Z,-0.52
2023-11-30T18:29:31.899Z,-0.52
2023-11-30T18:32:01.212Z,-0.50
2023-11-30T18:34:31.981Z,-0.49
2023-11-30T18:37:00.266Z,-0.46
2023-11-30T18:39:28.043Z,-0.50
2023-11-30T18:41:57.928Z,-0.57
2023-11-30T18:44:24.723Z,-0.47
2023-11-30T18:46:55.846Z,-0.49
2023-11-30T18:49:25.506Z,-0.45
2023-11-30T18:51:53.382Z,-0.40
2023-11-30T18:54:21.881Z,-0.42
2023-11-30T18:56:48.956Z,-0.48
2023-11-30T18:59:18.123Z,-0.43
2023-11-30T19:01:45.145Z,-0.51
2023-11-30T19:04:14.764Z,-0.53
2023-11-30T19:06:42.897Z,-0.54
2023-11-30T19:09:12.153Z,-0.58
2023-11-30T19:11:48.362Z,-0.55
2023-11-30T19:14:18.158Z,-0.56
2023-11-30T19:16:52.732Z,-0.55
2023-11-30T19:19:22.033Z,-0.49
2023-11-30T19:21:53.755Z,-0.54
2023-11-30T19:24:24.896Z,-0.55
2023-11-30T19:26:53.352Z,-0.57
2023-11-30T19:29:21.139Z,-0.58
2023-11-30T19:31:51.087Z,-0.56
2023-11-30T19:34:20.871Z,-0.63
2023-11-30T19:36:47.765Z,-0.61
2023-11-30T19:39:15.057Z,-0.66
2023-11-30T19:41:43.758Z,-0.68
2023-11-30T19:44:10.677Z,-0.70
2023-11-30T19:46:38.497Z,-0.72
2023-11-30T19:49:13.776Z,-0.68
2023-11-30T19:51:43.244Z,-0.64
2023-11-30T19:54:12.755Z,-0.60
2023-11-30T19:56:41.663Z,-0.60
2023-11-30T19:59:08.450Z,-0.64
2023-11-30T20:01:35.327Z,-0.61
2023-11-30T20:04:06.258Z,-0.64
2023-11-30T20:06:34.790Z,-0.63
2023-11-30T20:09:04.285Z,-0.59
2023-11-30T20:11:31.165Z,-0.58
2023-11-30T20:14:01.247Z,-0.57
2023-11-30T20:16:28.037Z,-0.58
2023-11-30T20:18:54.842Z,-0.55
2023-11-30T20:21:23.107Z,-0.56
2023-11-30T20:23:53.041Z,-0.61
2023-11-30T20:26:22.125Z,-0.61
2023-11-30T20:28:51.005Z,-0.60
2023-11-30T20:31:17.879Z,-0.61
2023-11-30T20:33:47.181Z,-0.61
2023-11-30T20:36:14.041Z,-0.60
2023-11-30T20:38:42.259Z,-0.60
2023-11-30T20:41:13.590Z,-0.58
2023-11-30T20:43:40.893Z,-0.58
2023-11-30T20:46:10.837Z,-0.53
2023-11-30T20:48:39.706Z,-0.49
2023-11-30T20:51:06.590Z,-0.51
2023-11-30T20:53:35.650Z,-0.57
2023-11-30T20:56:05.322Z,-0.57
2023-11-30T20:58:34.959Z,-0.57
2023-11-30T21:01:02.192Z,-0.56
2023-11-30T21:03:30.459Z,-0.57
2023-11-30T21:05:57.324Z,-0.53
2023-11-30T21:08:24.110Z,-0.38
2023-11-30T21:10:51.242Z,-0.44
2023-11-30T21:13:20.478Z,-0.43
2023-11-30T21:15:47.968Z,-0.48
2023-11-30T21:18:14.716Z,-0.46
2023-11-30T21:20:41.591Z,-0.46
2023-11-30T21:23:10.793Z,-0.44
2023-11-30T21:25:38.791Z,-0.47
2023-11-30T21:28:05.652Z,-0.45
2023-11-30T21:30:32.418Z,-0.45
2023-11-30T21:33:03.683Z,-0.51
2023-11-30T21:35:32.127Z,-0.46
2023-11-30T21:38:01.296Z,-0.49
2023-11-30T21:40:29.439Z,-0.48
2023-11-30T21:42:56.781Z,-0.48
2023-11-30T21:45:26.257Z,-0.42
2023-11-30T21:47:54.061Z,-0.45
2023-11-30T21:50:24.240Z,-0.49
2023-11-30T21:52:52.368Z,-0.47
2023-11-30T21:55:19.243Z,-0.46
2023-11-30T21:57:46.313Z,-0.42
2023-11-30T22:00:14.295Z,-0.37
2023-11-30T22:02:48.397Z,-0.38
2023-11-30T22:05:23.801Z,-0.37
2023-11-30T22:07:59.236Z,-0.39
2023-11-30T22:10:25.938Z,-0.38
2023-11-30T22:12:52.882Z,-0.35
2023-11-30T22:15:21.744Z,-0.37
2023-11-30T22:17:49.635Z,-0.34
2023-11-30T22:20:19.422Z,-0.36
2023-11-30T22:22:53.376Z,-0.37
2023-11-30T22:25:20.635Z,-0.35
2023-11-30T22:27:48.442Z,-0.38
2023-11-30T22:30:15.534Z,-0.41
2023-11-30T22:32:42.257Z,-0.41
2023-11-30T22:35:10.381Z,-0.39
2023-11-30T22:37:45.671Z,-0.39
2023-11-30T22:40:16.145Z,-0.37
2023-11-30T22:42:43.024Z,-0.41
2023-11-30T22:45:10.201Z,-0.43
2023-11-30T22:47:43.304Z,-0.36
2023-11-30T22:50:10.274Z,-0.38
2023-11-30T22:52:43.044Z,-0.40
2023-11-30T22:55:11.783Z,-0.39
2023-11-30T22:57:38.724Z,-0.38
2023-11-30T23:00:06.970Z,-0.40
2023-11-30T23:02:36.710Z,-0.42
2023-11-30T23:05:06.657Z,-0.43
2023-11-30T23:07:33.491Z,-0.45
2023-11-30T23:10:03.995Z,-0.46
2023-11-30T23:12:36.503Z,-0.45
2023-11-30T23:15:03.482Z,-0.44
2023-11-30T23:17:30.169Z,-0.43
2023-11-30T23:19:56.947Z,-0.43
2023-11-30T23:22:26.268Z,-0.41
2023-11-30T23:24:56.446Z,-0.43
2023-11-30T23:27:23.278Z,-0.41
2023-11-30T23:29:50.104Z,-0.38
2023-11-30T23:32:17.906Z,-0.37
2023-11-30T23:34:45.138Z,-0.45
2023-11-30T23:37:15.158Z,-0.37
2023-11-30T23:39:41.983Z,-0.36
2023-11-30T23:42:10.292Z,-0.33
2023-11-30T23:44:38.938Z,-0.31
2023-11-30T23:47:07.962Z,-0.38
2023-11-30T23:49:38.526Z,-0.38
2023-11-30T23:52:05.898Z,-0.33
2023-11-30T23:54:36.404Z,-0.36
2023-11-30T23:57:04.137Z,-0.38
2023-11-30T23:59:32.132Z,-0.39
